Time;durP1;ratioP1;P1;durP2;ratioP2;P2;SDS_P1;SDS_P2;PMS_P1;PMS_P2;Temp;Humidity;BMP_temperature;BMP_pressure;BME280_temperature;BME280_humidity;BME280_pressure;Samples;Min_cycle;Max_cycle;Signal;HPM_P1;HPM_P2
2024/04/02 00:01:55;;;;;;;0.10;0.10;;;7.80;1.00;;;;;;4946302;28;20046;-79
2024/04/02 00:04:22;;;;;;;0.10;0.10;;;7.90;1.00;;;;;;4957651;28;20035;-79
2024/04/02 00:06:48;;;;;;;0.10;0.10;;;7.80;1.00;;;;;;4959933;28;20035;-79
2024/04/02 00:09:14;;;;;;;0.30;0.30;;;7.80;1.00;;;;;;4958220;28;20037;-80
2024/04/02 00:11:40;;;;;;;0.20;0.20;;;7.70;1.00;;;;;;4956046;28;20378;-80
2024/04/02 00:14:07;;;;;;;0.10;0.10;;;7.70;1.00;;;;;;4957114;28;20042;-80
2024/04/02 00:16:33;;;;;;;0.38;0.38;;;7.80;1.00;;;;;;4962878;28;20030;-80
2024/04/02 00:18:59;;;;;;;0.10;0.10;;;7.70;1.00;;;;;;4946258;28;20050;-80
2024/04/02 00:21:25;;;;;;;0.20;0.20;;;7.70;1.00;;;;;;4958109;28;20034;-80
2024/04/02 00:23:51;;;;;;;0.10;0.10;;;7.60;1.00;;;;;;4954195;28;20043;-79
2024/04/02 00:26:17;;;;;;;0.10;0.10;;;7.60;1.00;;;;;;4954043;28;20035;-79
2024/04/02 00:28:44;;;;;;;0.10;0.10;;;7.70;1.00;;;;;;4937441;28;20491;-80
2024/04/02 00:31:15;;;;;;;0.10;0.10;;;7.70;1.00;;;;;;4946169;28;20043;-81
2024/04/02 00:33:41;;;;;;;0.20;0.20;;;7.70;1.00;;;;;;4951784;28;20473;-79
2024/04/02 00:36:08;;;;;;;0.10;0.10;;;7.70;1.00;;;;;;4940438;28;20038;-79
2024/04/02 00:38:34;;;;;;;0.10;0.10;;;7.70;1.00;;;;;;4951904;28;20100;-79
2024/04/02 00:41:00;;;;;;;0.10;0.10;;;7.80;1.00;;;;;;4946138;28;20472;-79
2024/04/02 00:43:27;;;;;;;0.10;0.10;;;7.80;1.00;;;;;;4955850;28;20030;-79
2024/04/02 00:45:53;;;;;;;0.20;0.20;;;7.80;1.00;;;;;;4963642;28;20038;-79
2024/04/02 00:48:21;;;;;;;0.10;0.10;;;7.80;1.00;;;;;;4955947;28;20114;-79
2024/04/02 00:50:48;;;;;;;0.10;0.10;;;7.80;1.00;;;;;;4941885;28;20023;-79
2024/04/02 00:53:15;;;;;;;0.20;0.20;;;7.70;1.00;;;;;;4931458;29;20032;-79
2024/04/02 00:55:43;;;;;;;0.10;0.10;;;7.70;1.00;;;;;;4952177;28;20038;-79
2024/04/02 00:58:10;;;;;;;0.10;0.10;;;7.70;1.00;;;;;;4955699;28;20023;-79
2024/04/02 01:00:37;;;;;;;2.45;1.23;;;7.70;1.00;;;;;;4968627;28;20043;-79
2024/04/02 01:03:04;;;;;;;0.10;0.10;;;7.60;1.00;;;;;;4942832;28;20496;-80
2024/04/02 01:05:36;;;;;;;0.40;0.40;;;7.70;1.00;;;;;;4962825;28;20047;-79
2024/04/02 01:08:08;;;;;;;0.10;0.10;;;7.70;1.00;;;;;;4959180;28;20043;-79
2024/04/02 01:10:34;;;;;;;0.10;0.10;;;7.80;1.00;;;;;;4958769;28;20381;-79
2024/04/02 01:13:01;;;;;;;0.10;0.10;;;7.70;1.00;;;;;;4961849;28;20040;-80
2024/04/02 01:15:27;;;;;;;0.43;0.40;;;7.60;1.00;;;;;;4962132;28;20038;-78
2024/04/02 01:17:54;;;;;;;0.30;0.30;;;7.50;1.00;;;;;;4956873;28;20358;-78
2024/04/02 01:20:21;;;;;;;0.20;0.20;;;7.50;1.00;;;;;;4973205;28;20344;-78
2024/04/02 01:22:47;;;;;;;0.30;0.30;;;7.50;1.00;;;;;;4982391;28;20057;-78
2024/04/02 01:25:18;;;;;;;0.15;0.15;;;7.60;1.00;;;;;;4979243;28;20472;-78
2024/04/02 01:27:45;;;;;;;0.10;0.10;;;7.50;1.00;;;;;;4979790;28;20042;-78
2024/04/02 01:30:11;;;;;;;0.10;0.10;;;7.50;1.00;;;;;;4952609;28;20038;-80
2024/04/02 01:32:37;;;;;;;0.10;0.10;;;7.40;1.00;;;;;;4984141;28;20033;-78
2024/04/02 01:35:04;;;;;;;0.10;0.10;;;7.40;1.00;;;;;;4983984;28;20049;-78
2024/04/02 01:37:30;;;;;;;0.10;0.10;;;7.30;1.00;;;;;;4980457;28;20026;-78
2024/04/02 01:39:56;;;;;;;0.10;0.10;;;7.30;1.00;;;;;;4965803;28;20042;-79
2024/04/02 01:42:22;;;;;;;0.10;0.10;;;7.30;1.00;;;;;;4970876;28;20039;-79
2024/04/02 01:44:51;;;;;;;0.20;0.20;;;7.30;1.00;;;;;;4988545;28;20352;-78
2024/04/02 01:47:17;;;;;;;0.20;0.20;;;7.20;1.00;;;;;;4983137;28;20038;-78
2024/04/02 01:49:43;;;;;;;0.10;0.10;;;7.20;1.00;;;;;;4978258;28;20050;-78
2024/04/02 01:52:09;;;;;;;0.10;0.10;;;7.20;1.00;;;;;;4979782;28;20031;-78
2024/04/02 01:54:35;;;;;;;0.40;0.40;;;7.20;1.00;;;;;;4979482;28;20050;-78
2024/04/02 01:57:02;;;;;;;0.10;0.10;;;7.20;1.00;;;;;;4979417;28;20034;-77
2024/04/02 01:59:28;;;;;;;0.40;0.40;;;7.30;1.00;;;;;;4984352;28;20034;-79
2024/04/02 02:01:54;;;;;;;0.10;0.10;;;7.30;1.00;;;;;;4984296;28;20451;-78
2024/04/02 02:04:21;;;;;;;0.20;0.20;;;7.20;1.00;;;;;;4983661;28;20039;-78
2024/04/02 02:06:47;;;;;;;0.10;0.10;;;7.10;1.00;;;;;;4980629;28;20038;-78
2024/04/02 02:09:13;;;;;;;0.10;0.10;;;7.10;1.00;;;;;;4977922;28;20041;-81
2024/04/02 02:11:40;;;;;;;0.10;0.10;;;7.10;1.00;;;;;;4969536;28;20031;-78
2024/04/02 02:14:06;;;;;;;0.10;0.10;;;7.10;1.00;;;;;;4956093;28;20037;-79
2024/04/02 02:16:32;;;;;;;0.10;0.10;;;7.00;1.00;;;;;;4986256;28;20460;-79
2024/04/02 02:18:58;;;;;;;0.43;0.32;;;6.90;1.00;;;;;;4986536;28;20050;-79
2024/04/02 02:21:24;;;;;;;0.10;0.10;;;6.90;1.00;;;;;;4979660;28;20031;-79
2024/04/02 02:23:50;;;;;;;0.10;0.10;;;6.80;1.00;;;;;;4978208;28;20050;-79
2024/04/02 02:26:18;;;;;;;0.10;0.10;;;6.90;1.00;;;;;;4976495;28;20031;-81
2024/04/02 02:28:45;;;;;;;0.13;0.13;;;6.90;1.00;;;;;;4978638;28;20404;-79
2024/04/02 02:31:11;;;;;;;0.30;0.30;;;7.20;1.00;;;;;;4980371;28;20018;-78
2024/04/02 02:33:37;;;;;;;0.10;0.10;;;7.30;1.00;;;;;;4981022;28;20037;-78
2024/04/02 02:36:04;;;;;;;0.10;0.10;;;7.40;1.00;;;;;;4978311;28;20039;-79
2024/04/02 02:38:31;;;;;;;0.30;0.30;;;7.60;99.90;;;;;;4979505;28;20031;-78
2024/04/02 02:41:01;;;;;;;0.10;0.10;;;7.60;99.90;;;;;;4976078;28;20042;-78
2024/04/02 02:43:27;;;;;;;0.10;0.10;;;7.70;99.90;;;;;;4975951;28;20452;-79
2024/04/02 02:45:54;;;;;;;0.20;0.20;;;7.80;99.90;;;;;;4968944;28;20045;-79
2024/04/02 02:48:20;;;;;;;0.20;0.20;;;7.70;99.90;;;;;;4985133;28;20043;-79
2024/04/02 02:50:47;;;;;;;0.10;0.10;;;7.70;99.90;;;;;;4982406;28;20037;-79
2024/04/02 02:53:14;;;;;;;0.22;0.20;;;7.90;99.90;;;;;;4976716;28;20022;-79
2024/04/02 02:55:40;;;;;;;0.10;0.10;;;8.00;99.90;;;;;;4970855;28;20037;-79
2024/04/02 02:58:07;;;;;;;0.47;0.47;;;8.10;99.90;;;;;;4973527;28;20396;-79
2024/04/02 03:00:38;;;;;;;0.10;0.10;;;8.20;99.90;;;;;;4986984;28;20848;-78
2024/04/02 03:03:05;;;;;;;0.10;0.10;;;8.20;99.90;;;;;;4983085;28;20448;-78
2024/04/02 03:05:31;;;;;;;0.10;0.10;;;8.20;99.90;;;;;;4978943;28;20042;-78
2024/04/02 03:07:57;;;;;;;0.17;0.17;;;8.20;99.90;;;;;;4980162;28;20058;-79
2024/04/02 03:10:24;;;;;;;0.10;0.10;;;8.20;99.90;;;;;;4976863;28;20035;-78
2024/04/02 03:12:50;;;;;;;0.38;0.38;;;8.20;99.90;;;;;;4973036;28;20041;-79
2024/04/02 03:15:17;;;;;;;0.10;0.10;;;8.30;99.90;;;;;;4941216;28;20411;-82
2024/04/02 03:17:43;;;;;;;0.10;0.10;;;8.40;99.90;;;;;;4981060;28;20372;-79
2024/04/02 03:20:10;;;;;;;0.10;0.10;;;8.40;99.90;;;;;;4977903;28;20129;-77
2024/04/02 03:22:36;;;;;;;0.10;0.10;;;8.40;99.90;;;;;;4970825;28;20876;-79
2024/04/02 03:25:03;;;;;;;0.10;0.10;;;8.50;99.90;;;;;;4972119;28;20038;-79
2024/04/02 03:27:30;;;;;;;0.10;0.10;;;8.50;99.90;;;;;;4953561;28;20039;-80
2024/04/02 03:29:57;;;;;;;0.10;0.10;;;8.50;99.90;;;;;;4982134;28;20049;-79
2024/04/02 03:32:23;;;;;;;0.10;0.10;;;8.50;99.90;;;;;;4966676;28;20045;-79
2024/04/02 03:34:49;;;;;;;10.23;0.82;;;8.50;99.90;;;;;;4963108;28;20359;-79
2024/04/02 03:37:15;;;;;;;0.40;0.40;;;8.50;99.90;;;;;;4977898;28;20031;-79
2024/04/02 03:39:41;;;;;;;0.10;0.10;;;8.50;99.90;;;;;;4974819;28;20051;-79
2024/04/02 03:42:07;;;;;;;0.47;0.15;;;8.50;99.90;;;;;;4971269;28;20027;-79
2024/04/02 03:44:34;;;;;;;0.17;0.17;;;8.50;99.90;;;;;;4983154;28;20053;-79
2024/04/02 03:47:00;;;;;;;0.30;0.30;;;8.60;99.90;;;;;;4981960;28;20023;-79
2024/04/02 03:49:26;;;;;;;4.50;1.27;;;8.50;99.90;;;;;;4981493;28;20062;-79
2024/04/02 03:51:53;;;;;;;0.10;0.10;;;8.60;99.90;;;;;;4963809;28;20042;-79
2024/04/02 03:54:19;;;;;;;0.10;0.10;;;8.60;99.90;;;;;;4978693;28;20452;-80
2024/04/02 03:56:47;;;;;;;0.10;0.10;;;8.60;99.90;;;;;;4979413;28;20045;-78
2024/04/02 03:59:13;;;;;;;0.20;0.20;;;8.60;99.90;;;;;;4972610;28;20045;-79
2024/04/02 04:01:39;;;;;;;0.10;0.10;;;8.60;99.90;;;;;;4979363;28;20256;-78
2024/04/02 04:04:05;;;;;;;0.40;0.32;;;8.60;96.80;;;;;;4979541;28;20039;-80
2024/04/02 04:06:31;;;;;;;0.10;0.10;;;8.70;90.20;;;;;;4976004;28;20030;-79
2024/04/02 04:08:57;;;;;;;0.10;0.10;;;8.70;99.90;;;;;;4959933;28;20456;-79
2024/04/02 04:11:23;;;;;;;0.40;0.40;;;8.70;99.70;;;;;;4975082;28;20447;-79
2024/04/02 04:13:50;;;;;;;0.32;0.30;;;8.70;92.80;;;;;;4976894;28;20042;-80
2024/04/02 04:16:16;;;;;;;0.08;0.08;;;8.70;71.80;;;;;;4981393;28;20042;-80
2024/04/02 04:18:43;;;;;;;0.10;0.10;;;8.70;65.60;;;;;;4974929;28;20054;-80
2024/04/02 04:21:09;;;;;;;0.10;0.10;;;8.70;88.10;;;;;;4960433;28;20030;-77
2024/04/02 04:23:35;;;;;;;0.10;0.10;;;8.70;93.30;;;;;;4957233;28;20035;-80
2024/04/02 04:26:03;;;;;;;0.10;0.10;;;8.70;82.50;;;;;;4954514;28;20031;-79
2024/04/02 04:28:30;;;;;;;0.47;0.47;;;8.60;91.40;;;;;;4956150;28;20035;-79
2024/04/02 04:31:03;;;;;;;0.20;0.20;;;8.60;97.40;;;;;;4947859;28;20022;-80
2024/04/02 04:33:30;;;;;;;0.10;0.10;;;8.70;91.50;;;;;;4959393;28;20386;-79
2024/04/02 04:35:56;;;;;;;0.10;0.10;;;8.60;86.60;;;;;;4958843;28;20039;-79
2024/04/02 04:38:25;;;;;;;0.35;0.35;;;8.60;91.60;;;;;;4957952;28;20031;-79
2024/04/02 04:40:51;;;;;;;0.50;0.50;;;8.70;90.50;;;;;;4954957;28;20035;-79
2024/04/02 04:43:18;;;;;;;0.10;0.10;;;8.60;93.70;;;;;;4957822;28;20041;-80
2024/04/02 04:45:54;;;;;;;0.10;0.10;;;8.60;95.60;;;;;;4960544;28;20041;-80
2024/04/02 04:48:21;;;;;;;0.30;0.30;;;8.60;96.30;;;;;;4963143;28;20057;-82
2024/04/02 04:51:04;;;;;;;0.10;0.10;;;8.50;99.90;;;;;;4961193;28;20042;-79
2024/04/02 04:53:32;;;;;;;0.10;0.10;;;8.50;99.90;;;;;;4957362;28;20031;-80
2024/04/02 04:56:02;;;;;;;0.25;0.25;;;8.40;99.90;;;;;;4955141;28;20126;-79
2024/04/02 04:58:28;;;;;;;0.13;0.13;;;8.40;99.90;;;;;;4958423;28;20026;-79
2024/04/02 05:00:55;;;;;;;0.10;0.10;;;8.40;99.90;;;;;;4963605;28;20031;-79
2024/04/02 05:03:22;;;;;;;0.15;0.15;;;8.50;99.90;;;;;;4963141;28;20042;-79
2024/04/02 05:05:48;;;;;;;0.17;0.17;;;8.50;99.90;;;;;;4952934;28;20066;-79
2024/04/02 05:08:22;;;;;;;0.52;0.52;;;8.40;99.90;;;;;;4958822;28;20368;-79
2024/04/02 05:10:49;;;;;;;0.13;0.13;;;8.40;99.90;;;;;;4954620;28;20027;-79
2024/04/02 05:13:17;;;;;;;0.10;0.10;;;8.40;99.90;;;;;;4955635;28;20038;-81
2024/04/02 05:15:44;;;;;;;18.88;1.13;;;8.60;99.90;;;;;;4941743;28;20396;-80
2024/04/02 05:18:10;;;;;;;0.57;0.57;;;8.60;99.90;;;;;;4963780;28;20047;-79
2024/04/02 05:20:37;;;;;;;0.10;0.10;;;8.50;99.90;;;;;;4961827;28;20039;-79
2024/04/02 05:23:05;;;;;;;0.10;0.10;;;8.60;99.90;;;;;;4977780;28;20030;-80
2024/04/02 05:25:31;;;;;;;0.17;0.17;;;8.60;99.90;;;;;;4948225;28;20051;-79
2024/04/02 05:27:57;;;;;;;0.10;0.10;;;8.60;99.90;;;;;;4955722;28;20068;-79
2024/04/02 05:30:23;;;;;;;0.10;0.10;;;8.70;92.90;;;;;;4983850;28;20046;-80
2024/04/02 05:32:49;;;;;;;0.10;0.10;;;8.70;92.20;;;;;;4987889;28;20038;-80
2024/04/02 05:35:16;;;;;;;0.10;0.10;;;8.80;77.80;;;;;;4979241;28;20062;-80
2024/04/02 05:37:42;;;;;;;0.10;0.10;;;8.80;51.60;;;;;;4974224;28;20039;-79
2024/04/02 05:40:08;;;;;;;0.20;0.20;;;8.80;50.60;;;;;;4974986;28;20030;-79
2024/04/02 05:42:35;;;;;;;0.20;0.20;;;8.90;34.00;;;;;;4970249;28;20042;-78
2024/04/02 05:45:01;;;;;;;0.20;0.20;;;8.90;15.70;;;;;;4982402;28;20030;-80
2024/04/02 05:47:28;;;;;;;0.10;0.10;;;8.90;6.70;;;;;;4985167;28;20336;-79
2024/04/02 05:49:54;;;;;;;0.30;0.20;;;8.90;8.40;;;;;;4985358;28;20038;-79
2024/04/02 05:52:20;;;;;;;0.20;0.20;;;9.00;13.70;;;;;;4978766;28;20122;-81
2024/04/02 05:54:46;;;;;;;0.20;0.20;;;8.90;21.40;;;;;;4978229;28;20491;-79
2024/04/02 05:57:15;;;;;;;0.45;0.45;;;9.00;14.00;;;;;;4973481;28;20041;-79
2024/04/02 05:59:42;;;;;;;0.10;0.10;;;9.00;21.10;;;;;;4967004;28;20041;-78
2024/04/02 06:02:08;;;;;;;1.25;0.73;;;9.00;14.80;;;;;;4983288;28;20054;-80
2024/04/02 06:04:35;;;;;;;0.28;0.28;;;9.10;1.00;;;;;;4979720;28;20034;-81
2024/04/02 06:07:01;;;;;;;0.63;0.63;;;9.10;1.00;;;;;;4980453;28;20022;-80
2024/04/02 06:09:27;;;;;;;4.97;1.20;;;9.10;1.00;;;;;;4982736;28;20390;-81
2024/04/02 06:11:53;;;;;;;0.10;0.10;;;9.20;1.00;;;;;;4957548;28;20042;-81
2024/04/02 06:14:19;;;;;;;0.10;0.10;;;9.20;1.00;;;;;;4977072;28;20031;-80
2024/04/02 06:16:46;;;;;;;0.10;0.10;;;9.20;8.90;;;;;;4978662;28;20407;-81
2024/04/02 06:19:12;;;;;;;0.10;0.10;;;9.20;1.00;;;;;;4979223;28;20057;-80
2024/04/02 06:21:38;;;;;;;0.10;0.10;;;9.30;1.00;;;;;;4987588;28;20034;-80
2024/04/02 06:24:04;;;;;;;0.10;0.10;;;9.40;1.00;;;;;;4979227;28;20023;-79
2024/04/02 06:26:31;;;;;;;0.20;0.20;;;9.40;1.00;;;;;;4977288;28;20046;-79
2024/04/02 06:28:57;;;;;;;0.10;0.10;;;9.30;1.00;;;;;;4966175;28;20037;-79
2024/04/02 06:31:23;;;;;;;0.10;0.10;;;9.30;1.00;;;;;;4983458;28;20027;-79
2024/04/02 06:33:49;;;;;;;0.10;0.10;;;9.30;1.00;;;;;;4979597;28;20026;-80
2024/04/02 06:36:15;;;;;;;0.28;0.28;;;9.20;1.00;;;;;;4977799;28;20038;-80
2024/04/02 06:38:41;;;;;;;0.30;0.30;;;9.20;1.00;;;;;;4977096;28;20475;-79
2024/04/02 06:41:09;;;;;;;0.10;0.10;;;9.20;1.00;;;;;;4975999;28;20026;-79
2024/04/02 06:43:35;;;;;;;0.10;0.10;;;9.20;1.00;;;;;;4980057;28;20066;-79
2024/04/02 06:46:02;;;;;;;0.10;0.10;;;9.20;1.00;;;;;;4981307;28;20427;-77
2024/04/02 06:48:28;;;;;;;0.10;0.10;;;9.30;1.00;;;;;;4982748;28;20026;-81
2024/04/02 06:51:06;;;;;;;0.10;0.10;;;9.40;1.00;;;;;;4983179;28;20034;-78
2024/04/02 06:53:32;;;;;;;0.10;0.10;;;9.40;1.00;;;;;;4975561;28;20083;-79
2024/04/02 06:55:59;;;;;;;0.10;0.10;;;9.40;1.00;;;;;;4970863;28;20037;-80
2024/04/02 06:58:25;;;;;;;0.10;0.10;;;9.40;1.00;;;;;;4977323;28;20030;-79
2024/04/02 07:00:52;;;;;;;0.10;0.10;;;9.50;1.00;;;;;;4986390;28;20034;-79
2024/04/02 07:03:20;;;;;;;0.30;0.30;;;9.50;1.00;;;;;;4984097;28;20042;-78
2024/04/02 07:05:48;;;;;;;0.10;0.10;;;9.50;1.00;;;;;;4979509;28;20057;-79
2024/04/02 07:08:14;;;;;;;0.10;0.10;;;9.60;1.00;;;;;;4979387;28;20034;-78
2024/04/02 07:10:43;;;;;;;0.20;0.20;;;9.50;1.00;;;;;;4972735;28;20031;-82
2024/04/02 07:13:09;;;;;;;0.40;0.40;;;9.40;1.00;;;;;;4974142;28;20034;-81
2024/04/02 07:15:36;;;;;;;0.10;0.10;;;9.40;1.00;;;;;;4957318;28;20054;-81
2024/04/02 07:18:02;;;;;;;0.10;0.10;;;9.50;1.00;;;;;;4975982;28;20388;-80
2024/04/02 07:20:29;;;;;;;0.10;0.10;;;9.70;1.00;;;;;;4961699;28;20057;-80
2024/04/02 07:22:55;;;;;;;0.10;0.10;;;9.80;1.00;;;;;;4959432;28;20560;-76
2024/04/02 07:25:21;;;;;;;0.20;0.20;;;9.90;1.00;;;;;;4956162;28;20049;-81
2024/04/02 07:27:47;;;;;;;0.10;0.10;;;10.00;1.00;;;;;;4954839;28;20043;-82
2024/04/02 07:30:13;;;;;;;0.20;0.10;;;9.90;1.00;;;;;;4963453;28;20038;-82
2024/04/02 07:32:40;;;;;;;0.10;0.10;;;10.00;1.00;;;;;;4943784;28;20357;-82
2024/04/02 07:35:06;;;;;;;0.38;0.38;;;10.00;1.00;;;;;;4958429;28;20047;-82
2024/04/02 07:37:33;;;;;;;0.10;0.10;;;10.00;1.00;;;;;;4924023;28;20035;-83
2024/04/02 07:39:59;;;;;;;0.10;0.10;;;10.10;1.00;;;;;;4938468;28;20050;-82
2024/04/02 07:42:25;;;;;;;0.17;0.17;;;10.10;99.90;;;;;;4937769;28;20054;-81
2024/04/02 07:44:52;;;;;;;0.10;0.10;;;10.10;99.90;;;;;;4959808;28;20054;-82
2024/04/02 07:47:18;;;;;;;0.30;0.25;;;10.30;99.90;;;;;;4948685;28;20039;-83
2024/04/02 07:49:44;;;;;;;1.45;1.25;;;10.50;99.90;;;;;;4960337;28;20051;-84
2024/04/02 07:52:10;;;;;;;0.25;0.25;;;10.50;99.90;;;;;;4956488;28;20389;-83
2024/04/02 07:54:36;;;;;;;0.10;0.10;;;10.50;99.90;;;;;;4965024;28;20028;-82
2024/04/02 07:57:02;;;;;;;0.73;0.73;;;10.50;99.90;;;;;;4953967;28;20062;-82
2024/04/02 07:59:29;;;;;;;0.38;0.38;;;10.40;99.90;;;;;;4961328;28;20034;-81
2024/04/02 08:01:55;;;;;;;0.10;0.10;;;10.40;99.90;;;;;;4959086;28;20027;-82
2024/04/02 08:04:21;;;;;;;0.30;0.25;;;10.40;99.90;;;;;;4962879;28;20034;-82
2024/04/02 08:06:47;;;;;;;0.10;0.10;;;10.30;99.90;;;;;;4943064;28;20057;-82
2024/04/02 08:09:13;;;;;;;1.08;0.98;;;10.30;99.90;;;;;;4957931;28;20031;-82
2024/04/02 08:11:43;;;;;;;0.10;0.10;;;10.30;99.90;;;;;;4956178;28;20088;-83
2024/04/02 08:14:10;;;;;;;0.10;0.10;;;10.30;99.90;;;;;;4959856;28;20039;-83
2024/04/02 08:16:36;;;;;;;0.28;0.28;;;10.40;99.90;;;;;;4944272;29;20126;-83
2024/04/02 08:19:03;;;;;;;0.30;0.30;;;10.60;99.90;;;;;;4967772;28;20051;-82
2024/04/02 08:21:29;;;;;;;0.10;0.10;;;10.80;51.00;;;;;;4974243;28;20038;-79
2024/04/02 08:23:56;;;;;;;0.20;0.20;;;10.80;28.60;;;;;;4955797;28;20046;-81
2024/04/02 08:26:23;;;;;;;2.70;0.52;;;10.70;67.60;;;;;;4968232;28;20047;-83
2024/04/02 08:28:49;;;;;;;0.35;0.35;;;10.80;21.30;;;;;;4942114;28;20047;-81
2024/04/02 08:31:16;;;;;;;0.55;0.45;;;10.90;26.40;;;;;;4964082;28;20026;-80
2024/04/02 08:33:42;;;;;;;0.32;0.30;;;10.90;1.00;;;;;;4968050;28;20034;-76
2024/04/02 08:36:08;;;;;;;0.10;0.10;;;11.00;1.00;;;;;;4953789;28;20038;-77
2024/04/02 08:38:34;;;;;;;0.30;0.30;;;10.90;1.00;;;;;;4956798;28;20023;-80
2024/04/02 08:41:04;;;;;;;0.32;0.32;;;10.80;1.00;;;;;;4954826;28;20035;-79
2024/04/02 08:43:31;;;;;;;0.20;0.20;;;11.00;1.00;;;;;;4930463;28;20030;-81
2024/04/02 08:45:59;;;;;;;0.35;0.30;;;11.20;1.00;;;;;;4947933;28;20050;-81
2024/04/02 08:48:25;;;;;;;1.17;0.47;;;11.60;1.00;;;;;;4951845;28;20035;-79
2024/04/02 08:51:00;;;;;;;0.10;0.10;;;11.70;1.00;;;;;;4972728;28;20602;-79
2024/04/02 08:53:26;;;;;;;0.75;0.75;;;11.60;1.00;;;;;;4950856;28;20046;-79
2024/04/02 08:55:56;;;;;;;0.10;0.10;;;11.50;1.00;;;;;;4953223;28;20039;-80
2024/04/02 08:58:24;;;;;;;0.25;0.25;;;11.40;1.00;;;;;;4951667;28;20042;-80
2024/04/02 09:00:51;;;;;;;0.20;0.20;;;11.40;1.00;;;;;;4958659;28;20042;-80
2024/04/02 09:03:19;;;;;;;1.13;0.28;;;11.50;1.00;;;;;;4959424;28;20658;-81
2024/04/02 09:05:45;;;;;;;0.40;0.40;;;11.50;1.00;;;;;;4952734;28;20043;-79
2024/04/02 09:08:14;;;;;;;0.10;0.10;;;11.40;99.90;;;;;;4954269;28;20054;-79
2024/04/02 09:10:42;;;;;;;0.22;0.22;;;11.50;1.00;;;;;;4964198;28;20035;-82
2024/04/02 09:13:08;;;;;;;0.10;0.10;;;11.90;99.90;;;;;;4953637;28;20042;-81
2024/04/02 09:15:38;;;;;;;0.55;0.55;;;12.10;99.90;;;;;;4961989;28;20030;-80
2024/04/02 09:18:04;;;;;;;3.15;1.05;;;12.00;99.90;;;;;;4978253;28;20039;-80
2024/04/02 09:20:33;;;;;;;0.10;0.10;;;12.00;99.90;;;;;;4964977;28;20049;-79
2024/04/02 09:23:00;;;;;;;0.15;0.15;;;11.90;99.90;;;;;;4979578;28;20034;-80
2024/04/02 09:25:27;;;;;;;0.10;0.10;;;12.10;99.90;;;;;;4970574;28;20051;-80
2024/04/02 09:27:54;;;;;;;0.15;0.15;;;12.80;99.90;;;;;;4972312;28;20403;-79
2024/04/02 09:30:23;;;;;;;0.30;0.25;;;13.40;99.90;;;;;;4987859;28;20026;-79
2024/04/02 09:32:53;;;;;;;1.20;0.35;;;13.70;99.90;;;;;;4983430;28;20038;-80
2024/04/02 09:35:56;;;;;;;0.63;0.40;;;13.60;99.90;;;;;;4982034;28;20042;-79
2024/04/02 09:38:24;;;;;;;0.20;0.20;;;13.00;99.90;;;;;;4980636;28;20046;-79
2024/04/02 09:40:51;;;;;;;0.10;0.10;;;12.50;99.90;;;;;;4976047;28;20368;-79
2024/04/02 09:43:20;;;;;;;0.57;0.40;;;12.40;99.90;;;;;;4972306;28;20038;-79
2024/04/02 09:45:49;;;;;;;0.35;0.35;;;12.10;99.90;;;;;;4979402;28;20050;-77
2024/04/02 09:48:19;;;;;;;0.10;0.10;;;12.40;99.90;;;;;;4984585;28;20038;-78
2024/04/02 09:50:46;;;;;;;1.00;0.80;;;12.50;99.90;;;;;;4981820;28;20043;-79
2024/04/02 09:53:15;;;;;;;1.15;0.55;;;13.00;99.90;;;;;;4979743;28;20478;-77
2024/04/02 09:55:42;;;;;;;0.28;0.20;;;13.10;99.90;;;;;;4976367;28;20031;-81
2024/04/02 09:58:09;;;;;;;0.68;0.68;;;13.00;99.90;;;;;;4976367;28;20041;-84
2024/04/02 10:00:37;;;;;;;0.20;0.20;;;13.10;99.90;;;;;;4988502;28;20060;-81
2024/04/02 10:03:05;;;;;;;0.10;0.10;;;12.90;99.90;;;;;;4983903;28;20037;-81
2024/04/02 10:05:35;;;;;;;0.20;0.20;;;12.90;99.90;;;;;;4981373;28;20436;-79
2024/04/02 10:08:03;;;;;;;0.50;0.50;;;12.70;99.90;;;;;;4978831;28;20039;-83
2024/04/02 10:10:29;;;;;;;0.13;0.13;;;12.80;99.90;;;;;;4962233;28;20042;-82
2024/04/02 10:12:56;;;;;;;0.20;0.20;;;12.80;99.90;;;;;;4977537;28;20776;-81
2024/04/02 10:15:23;;;;;;;5.68;0.52;;;12.70;99.90;;;;;;4968670;28;20039;-79
2024/04/02 10:18:00;;;;;;;0.10;0.10;;;12.60;99.90;;;;;;4980879;28;20042;-81
2024/04/02 10:20:29;;;;;;;0.10;0.10;;;12.50;99.90;;;;;;4978709;28;20042;-83
2024/04/02 10:22:57;;;;;;;0.10;0.10;;;12.40;99.90;;;;;;4986741;28;20487;-81
2024/04/02 10:25:24;;;;;;;0.20;0.20;;;12.40;99.90;;;;;;4953835;28;20035;-82
2024/04/02 10:27:53;;;;;;;0.10;0.10;;;12.60;99.90;;;;;;4979205;28;20053;-81
2024/04/02 10:30:20;;;;;;;0.40;0.40;;;12.60;99.90;;;;;;4986143;28;20027;-85
2024/04/02 10:32:47;;;;;;;0.60;0.55;;;12.70;99.90;;;;;;4967481;28;20034;-83
2024/04/02 10:35:21;;;;;;;0.63;0.52;;;12.50;99.90;;;;;;4982248;28;20038;-84
2024/04/02 10:37:49;;;;;;;0.10;0.10;;;12.40;99.90;;;;;;4990405;28;20038;-83
2024/04/02 10:40:16;;;;;;;0.38;0.38;;;12.40;99.90;;;;;;5000322;28;20037;-84
2024/04/02 10:42:44;;;;;;;0.10;0.10;;;12.80;99.90;;;;;;4993835;28;20037;-84
2024/04/02 10:45:10;;;;;;;6.38;0.40;;;13.30;99.90;;;;;;4991822;28;20045;-87
2024/04/02 10:47:43;;;;;;;0.10;0.10;;;13.60;99.90;;;;;;4982986;28;20047;-83
2024/04/02 10:50:10;;;;;;;0.20;0.20;;;13.70;99.90;;;;;;4981995;28;20459;-84
2024/04/02 10:52:36;;;;;;;1.45;0.85;;;13.30;99.90;;;;;;4980897;28;20391;-85
2024/04/02 10:55:06;;;;;;;0.38;0.22;;;13.20;99.90;;;;;;4969265;28;20456;-83
2024/04/02 10:57:33;;;;;;;0.10;0.10;;;12.90;99.90;;;;;;4978845;28;20043;-84
2024/04/02 11:00:01;;;;;;;0.90;0.90;;;12.50;99.90;;;;;;4991172;28;20049;-90
2024/04/02 11:02:28;;;;;;;0.32;0.32;;;12.20;99.90;;;;;;4977654;28;20357;-86
2024/04/02 11:04:56;;;;;;;0.35;0.22;;;12.10;99.90;;;;;;4982411;28;20038;-86
2024/04/02 11:07:25;;;;;;;0.10;0.10;;;12.40;1.00;;;;;;4976591;28;20045;-75
2024/04/02 11:09:52;;;;;;;0.20;0.20;;;12.90;99.90;;;;;;4970961;28;20498;-75
2024/04/02 11:12:20;;;;;;;0.10;0.10;;;12.90;99.90;;;;;;4980007;28;20030;-89
2024/04/02 11:14:53;;;;;;;0.10;0.10;;;13.00;99.90;;;;;;4985908;28;20031;-85
2024/04/02 11:17:20;;;;;;;0.20;0.20;;;13.10;99.90;;;;;;4978807;28;20178;-87
2024/04/02 11:19:47;;;;;;;1.65;0.65;;;13.10;99.90;;;;;;4963097;28;20055;-84
2024/04/02 11:25:14;;;;;;;0.10;0.10;;;13.20;99.90;;;;;;4957063;28;20035;-82
2024/04/02 11:27:41;;;;;;;0.10;0.10;;;13.20;99.90;;;;;;4954694;28;20054;-86
2024/04/02 11:30:13;;;;;;;0.10;0.10;;;13.10;99.90;;;;;;4968055;28;20039;-83
2024/04/02 11:32:39;;;;;;;0.32;0.30;;;13.10;99.90;;;;;;4961592;28;20075;-89
2024/04/02 11:35:09;;;;;;;0.20;0.20;;;13.30;99.90;;;;;;4945082;28;20385;-88
2024/04/02 11:37:36;;;;;;;0.00;0.00;;;13.50;99.90;;;;;;4946423;29;20039;-88
2024/04/02 11:40:03;;;;;;;0.10;0.10;;;13.50;99.90;;;;;;4958914;28;20053;-88
2024/04/02 11:42:30;;;;;;;0.20;0.20;;;13.50;99.90;;;;;;4954669;28;20062;-84
2024/04/02 11:45:06;;;;;;;1.08;0.20;;;13.40;99.90;;;;;;4960083;28;20039;-84
2024/04/02 11:47:36;;;;;;;2.05;1.10;;;13.30;99.90;;;;;;4930413;29;20047;-83
2024/04/02 11:50:04;;;;;;;0.17;0.17;;;13.30;99.90;;;;;;4970143;28;20036;-84
2024/04/02 11:52:32;;;;;;;0.10;0.10;;;13.40;99.90;;;;;;4958715;28;20283;-87
2024/04/02 11:55:01;;;;;;;1.85;0.60;;;13.50;99.90;;;;;;4940625;28;20035;-87
2024/04/02 12:00:19;;;;;;;0.10;0.10;;;14.20;99.90;;;;;;4962956;28;20035;-84
2024/04/02 12:02:46;;;;;;;0.28;0.28;;;14.00;99.90;;;;;;4964327;28;20035;-87
2024/04/02 12:05:15;;;;;;;0.10;0.10;;;13.80;99.90;;;;;;4940074;28;20377;-82
2024/04/02 12:07:42;;;;;;;0.20;0.20;;;13.60;99.90;;;;;;4943151;28;20039;-86
2024/04/02 12:10:10;;;;;;;0.17;0.17;;;13.50;99.90;;;;;;4966672;28;20045;-86
2024/04/02 12:12:37;;;;;;;0.75;0.75;;;13.60;99.90;;;;;;4963276;28;20051;-85
2024/04/02 12:15:05;;;;;;;0.10;0.10;;;13.60;99.90;;;;;;4953706;28;20036;-80
2024/04/02 12:17:32;;;;;;;0.10;0.10;;;13.40;99.90;;;;;;4953418;28;20042;-80
2024/04/02 12:19:58;;;;;;;0.10;0.10;;;13.80;99.90;;;;;;4973027;28;20057;-82
2024/04/02 12:22:26;;;;;;;0.20;0.10;;;14.20;99.90;;;;;;4976636;28;20031;-83
2024/04/02 12:24:54;;;;;;;0.20;0.20;;;14.30;99.90;;;;;;4955023;28;20054;-84
2024/04/02 12:27:22;;;;;;;0.10;0.10;;;14.40;99.90;;;;;;4973246;28;20112;-83
2024/04/02 12:29:55;;;;;;;0.32;0.30;;;14.30;99.90;;;;;;4977749;28;20051;-84
2024/04/02 12:32:23;;;;;;;0.10;0.10;;;14.50;99.90;;;;;;4975085;28;20034;-84
2024/04/02 12:34:49;;;;;;;0.10;0.10;;;14.50;99.90;;;;;;4976147;28;20145;-84
2024/04/02 12:37:16;;;;;;;0.10;0.10;;;14.70;99.90;;;;;;4977251;28;20029;-84
2024/04/02 12:39:44;;;;;;;0.00;0.00;;;14.90;99.90;;;;;;4976240;28;20022;-85
2024/04/02 12:42:11;;;;;;;0.20;0.20;;;14.70;99.90;;;;;;4974437;28;20027;-84
2024/04/02 12:44:39;;;;;;;0.10;0.10;;;14.50;99.90;;;;;;4975802;28;20058;-86
2024/04/02 12:47:09;;;;;;;0.10;0.10;;;14.60;99.90;;;;;;4982573;28;20034;-83
2024/04/02 12:49:37;;;;;;;0.10;0.10;;;14.80;99.90;;;;;;4992789;28;20022;-83
2024/04/02 12:52:08;;;;;;;0.20;0.20;;;15.20;99.90;;;;;;4971196;28;20038;-84
2024/04/02 12:54:34;;;;;;;0.55;0.45;;;14.80;99.90;;;;;;4979574;28;20036;-84
2024/04/02 12:57:01;;;;;;;0.20;0.20;;;14.40;99.90;;;;;;4982357;28;20054;-86
2024/04/02 12:59:27;;;;;;;0.45;0.45;;;14.10;99.90;;;;;;4980750;28;20039;-87
2024/04/02 13:01:53;;;;;;;0.08;0.08;;;13.80;99.90;;;;;;4979521;28;20039;-86
2024/04/02 13:04:21;;;;;;;0.10;0.10;;;13.20;99.90;;;;;;4981710;28;20042;-82